createdAt,value
2019-06-07T00:00:29.829Z,8.91
2019-06-07T00:02:39.773Z,8.91
2019-06-07T00:05:10.011Z,8.90
2019-06-07T00:07:38.473Z,8.93
2019-06-07T00:10:07.098Z,8.96
2019-06-07T00:12:35.487Z,8.96
2019-06-07T00:15:04.558Z,8.93
2019-06-07T00:17:33.014Z,8.92
2019-06-07T00:20:01.397Z,8.93
2019-06-07T00:22:33.383Z,8.93
2019-06-07T00:25:00.090Z,9.09
2019-06-07T00:27:28.490Z,9.20
2019-06-07T00:29:56.977Z,9.17
2019-06-07T00:32:25.387Z,9.16
2019-06-07T00:34:53.786Z,9.16
2019-06-07T00:37:25.073Z,9.02
2019-06-07T00:40:12.877Z,8.97
2019-06-07T00:42:24.084Z,9.08
2019-06-07T00:44:52.850Z,8.98
2019-06-07T00:47:24.406Z,8.99
2019-06-07T00:49:51.472Z,8.96
2019-06-07T00:53:11.860Z,8.99
2019-06-07T00:54:50.078Z,8.97
2019-06-07T00:57:19.884Z,8.94
2019-06-07T00:59:48.679Z,8.81
2019-06-07T01:02:20.923Z,8.76
2019-06-07T01:04:47.369Z,8.74
2019-06-07T01:07:18.366Z,8.71
2019-06-07T01:09:45.917Z,8.77
2019-06-07T01:12:18.096Z,8.80
2019-06-07T01:14:44.573Z,8.80
2019-06-07T01:17:39.215Z,8.83
2019-06-07T01:19:55.311Z,8.87
2019-06-07T01:22:29.025Z,8.88
2019-06-07T01:24:54.043Z,8.72
2019-06-07T01:27:24.193Z,8.62
2019-06-07T01:29:52.614Z,8.62
2019-06-07T01:32:23.358Z,8.67
2019-06-07T01:34:51.216Z,8.70
2019-06-07T01:37:22.596Z,8.80
2019-06-07T01:39:49.820Z,8.79
2019-06-07T01:42:19.902Z,8.69
2019-06-07T01:44:48.347Z,8.70
2019-06-07T01:47:17.832Z,8.75
2019-06-07T01:49:46.934Z,8.75
2019-06-07T01:52:16.476Z,8.77
2019-06-07T01:54:58.549Z,8.80
2019-06-07T01:57:31.098Z,8.82
2019-06-07T01:59:45.568Z,8.62
2019-06-07T02:02:13.977Z,8.90
2019-06-07T02:04:42.497Z,8.99
2019-06-07T02:07:10.888Z,8.99
2019-06-07T02:09:39.299Z,9.07
2019-06-07T02:12:25.050Z,9.14
2019-06-07T02:14:38.027Z,9.15
2019-06-07T02:17:06.578Z,9.16
2019-06-07T02:19:35.002Z,9.16
2019-06-07T02:22:03.385Z,9.23
2019-06-07T02:24:35.199Z,9.23
2019-06-07T02:27:02.153Z,9.24
2019-06-07T02:29:33.025Z,9.36
2019-06-07T02:32:00.684Z,9.36
2019-06-07T02:34:35.994Z,9.37
2019-06-07T02:36:59.211Z,9.36
2019-06-07T02:39:28.891Z,9.41
2019-06-07T02:41:58.006Z,9.42
2019-06-07T02:44:31.820Z,9.49
2019-06-07T02:46:56.542Z,9.51
2019-06-07T02:49:28.467Z,9.59
2019-06-07T02:51:55.071Z,9.66
2019-06-07T02:54:24.052Z,9.68
2019-06-07T02:56:58.600Z,9.75
2019-06-07T02:59:47.138Z,9.88
2019-06-07T03:01:54.691Z,9.91
2019-06-07T03:04:26.437Z,9.83
2019-06-07T03:06:56.340Z,9.89
2019-06-07T03:09:26.361Z,9.97
2019-06-07T03:11:57.309Z,9.97
2019-06-07T03:14:28.668Z,9.97
2019-06-07T03:17:18.850Z,9.94
2019-06-07T03:19:53.084Z,10.03
2019-06-07T03:22:21.765Z,10.01
2019-06-07T03:24:51.175Z,9.93
2019-06-07T03:27:35.015Z,9.93
2019-06-07T03:29:50.362Z,9.91
2019-06-07T03:32:18.931Z,9.82
2019-06-07T03:34:47.347Z,9.77
2019-06-07T03:37:15.740Z,9.72
2019-06-07T03:39:44.151Z,9.70
2019-06-07T03:42:12.569Z,9.66
2019-06-07T03:44:41.634Z,9.64
2019-06-07T03:47:10.241Z,9.76
2019-06-07T03:49:42.129Z,9.76
2019-06-07T03:52:08.826Z,9.77
2019-06-07T03:54:39.785Z,9.82
2019-06-07T03:57:07.345Z,9.85
2019-06-07T03:59:38.723Z,9.94
2019-06-07T04:02:05.960Z,10.05
2019-06-07T04:04:37.810Z,10.11
2019-06-07T04:07:04.666Z,10.17
2019-06-07T04:09:37.212Z,10.22
2019-06-07T04:12:03.303Z,10.38
2019-06-07T04:14:32.886Z,10.35
2019-06-07T04:17:01.389Z,10.43
2019-06-07T04:19:32.215Z,10.49
2019-06-07T04:22:00.098Z,10.55
2019-06-07T04:24:28.673Z,10.55
2019-06-07T04:26:57.276Z,10.59
2019-06-07T04:29:33.080Z,10.65
2019-06-07T04:31:55.921Z,10.69
2019-06-07T04:34:24.374Z,10.68
2019-06-07T04:36:58.912Z,10.68
2019-06-07T04:39:24.956Z,10.75
2019-06-07T04:41:55.393Z,10.76
2019-06-07T04:44:25.224Z,10.78
2019-06-07T04:46:57.390Z,10.86
2019-06-07T04:49:26.291Z,10.91
2019-06-07T04:51:57.246Z,10.97
2019-06-07T04:54:25.981Z,10.78
2019-06-07T04:56:54.425Z,11.10
2019-06-07T05:00:01.102Z,11.19
2019-06-07T05:03:45.272Z,11.47
2019-06-07T05:06:13.683Z,11.56
2019-06-07T05:08:43.735Z,11.72
2019-06-07T05:11:12.490Z,11.85
2019-06-07T05:13:43.992Z,11.98
2019-06-07T05:16:11.025Z,12.11
2019-06-07T05:18:41.659Z,12.22
2019-06-07T05:21:09.639Z,12.33
2019-06-07T05:26:08.186Z,12.59
2019-06-07T05:28:40.582Z,12.69
2019-06-07T05:31:07.983Z,12.79
2019-06-07T05:33:38.486Z,12.87
2019-06-07T05:36:07.070Z,12.97
2019-06-07T05:38:36.091Z,13.06
2019-06-07T05:41:05.637Z,13.26
2019-06-07T05:43:36.558Z,13.48
2019-06-07T05:46:04.693Z,13.62
2019-06-07T05:48:34.153Z,13.75
2019-06-07T05:51:02.695Z,13.81
2019-06-07T05:53:31.680Z,14.11
2019-06-07T05:56:01.110Z,14.18
2019-06-07T05:58:29.565Z,14.27
2019-06-07T06:01:40.945Z,14.33
2019-06-07T06:03:28.202Z,14.21
2019-06-07T06:05:56.631Z,14.19
2019-06-07T06:08:25.309Z,14.20
2019-06-07T06:10:53.715Z,14.37
2019-06-07T06:13:22.199Z,14.43
2019-06-07T06:16:00.591Z,14.55
2019-06-07T06:18:20.837Z,14.72
2019-06-07T06:21:11.778Z,14.76
2019-06-07T06:23:19.550Z,14.83
2019-06-07T06:25:55.844Z,14.88
2019-06-07T06:28:18.140Z,14.81
2019-06-07T06:30:49.924Z,14.81
2019-06-07T06:33:33.124Z,14.78
2019-06-07T06:35:49.404Z,14.83
2019-06-07T06:38:18.275Z,14.98
2019-06-07T06:40:49.666Z,15.24
2019-06-07T06:43:16.866Z,15.38
2019-06-07T06:45:47.828Z,15.52
2019-06-07T06:48:15.665Z,15.76
2019-06-07T06:50:46.600Z,15.69
2019-06-07T06:53:14.197Z,15.93
2019-06-07T06:55:43.946Z,16.21
2019-06-07T06:58:12.998Z,16.44
2019-06-07T07:01:04.922Z,16.67
2019-06-07T07:03:54.292Z,16.91
2019-06-07T07:05:54.549Z,17.15
2019-06-07T07:08:22.748Z,17.22
2019-06-07T07:10:53.205Z,17.38
2019-06-07T07:13:21.644Z,17.50
2019-06-07T07:15:55.258Z,17.62
2019-06-07T07:18:20.288Z,17.76
2019-06-07T07:20:53.378Z,17.85
2019-06-07T07:23:18.837Z,17.81
2019-06-07T07:25:55.388Z,17.93
2019-06-07T07:28:17.384Z,18.25
2019-06-07T07:30:55.262Z,18.38
2019-06-07T07:33:21.713Z,18.53
2019-06-07T07:36:11.035Z,18.60
2019-06-07T07:38:20.474Z,18.87
2019-06-07T07:41:01.650Z,18.71
2019-06-07T07:43:19.122Z,18.77
2019-06-07T07:45:57.290Z,18.99
2019-06-07T07:48:18.514Z,19.27
2019-06-07T07:50:49.683Z,19.26
2019-06-07T07:53:17.446Z,19.28
2019-06-07T07:55:49.480Z,19.26
2019-06-07T07:58:15.919Z,19.44
2019-06-07T08:01:00.188Z,19.57
2019-06-07T08:03:14.532Z,19.52
2019-06-07T08:05:45.117Z,19.54
2019-06-07T08:08:13.215Z,19.75
2019-06-07T08:10:41.677Z,19.96
2019-06-07T08:13:27.671Z,20.15
2019-06-07T08:15:40.429Z,20.30
2019-06-07T08:18:08.899Z,20.40
2019-06-07T08:20:37.603Z,20.70
2019-06-07T08:23:06.001Z,20.91
2019-06-07T08:25:34.403Z,20.95
2019-06-07T08:28:02.793Z,20.93
2019-06-07T08:30:50.787Z,21.05
2019-06-07T08:33:23.981Z,21.10
2019-06-07T08:36:03.730Z,21.14
2019-06-07T08:38:24.814Z,21.41
2019-06-07T08:40:31.855Z,21.60
2019-06-07T08:43:15.083Z,21.89
2019-06-07T08:45:30.619Z,22.02
2019-06-07T08:48:09.206Z,22.21
2019-06-07T08:50:54.210Z,22.33
2019-06-07T08:53:20.144Z,22.45
2019-06-07T08:55:48.550Z,22.09
2019-06-07T08:58:16.955Z,22.12
2019-06-07T09:00:47.377Z,22.29
2019-06-07T09:03:15.620Z,22.28
2019-06-07T09:05:44.145Z,22.32
2019-06-07T09:08:29.071Z,22.65
2019-06-07T09:10:42.675Z,22.64
2019-06-07T09:13:12.060Z,22.44
2019-06-07T09:15:40.636Z,22.69
2019-06-07T09:18:40.062Z,23.00
2019-06-07T09:20:45.058Z,23.04
2019-06-07T09:23:17.144Z,22.95
2019-06-07T09:25:56.469Z,22.98
2019-06-07T09:28:19.882Z,23.04
2019-06-07T09:30:45.649Z,23.32
2019-06-07T09:33:14.221Z,23.68
2019-06-07T09:35:42.816Z,23.89
2019-06-07T09:38:24.283Z,24.24
2019-06-07T09:40:41.477Z,24.39
2019-06-07T09:45:40.326Z,24.68
2019-06-07T09:48:13.454Z,24.71
2019-06-07T09:50:38.997Z,24.53
2019-06-07T09:53:21.144Z,24.64
2019-06-07T09:55:37.575Z,24.68
2019-06-07T09:58:47.856Z,24.69
2019-06-07T10:00:41.585Z,24.72
2019-06-07T10:03:17.772Z,24.69
2019-06-07T10:05:36.736Z,24.94
2019-06-07T10:08:40.387Z,24.42
2019-06-07T10:10:35.583Z,24.47
2019-06-07T10:13:04.447Z,24.75
2019-06-07T10:15:34.496Z,25.23
2019-06-07T10:18:02.963Z,25.61
2019-06-07T10:20:31.399Z,25.82
2019-06-07T10:23:01.466Z,25.95
2019-06-07T10:25:30.122Z,26.12
2019-06-07T10:28:00.052Z,26.01
2019-06-07T10:30:28.475Z,26.23
2019-06-07T10:32:56.889Z,26.22
2019-06-07T10:35:25.303Z,25.95
2019-06-07T10:37:53.716Z,26.04
2019-06-07T10:40:22.189Z,26.32
2019-06-07T10:42:50.665Z,26.69
2019-06-07T10:45:19.523Z,26.85
2019-06-07T10:47:47.921Z,26.76
2019-06-07T10:50:16.761Z,26.69
2019-06-07T10:52:45.160Z,26.90
2019-06-07T10:55:13.903Z,26.54
2019-06-07T10:57:42.377Z,26.42
2019-06-07T11:00:13.580Z,26.32
2019-06-07T11:02:42.164Z,25.55
2019-06-07T11:05:12.271Z,26.01
2019-06-07T11:07:40.792Z,26.31
2019-06-07T11:10:15.579Z,26.73
2019-06-07T11:12:40.367Z,26.95
2019-06-07T11:15:09.133Z,27.12
2019-06-07T11:17:37.687Z,27.43
2019-06-07T11:20:10.292Z,27.67
2019-06-07T11:22:39.022Z,27.70
2019-06-07T11:25:09.208Z,27.82
2019-06-07T11:27:38.894Z,28.14
2019-06-07T11:30:08.391Z,27.78
2019-06-07T11:32:36.950Z,27.81
2019-06-07T11:35:10.869Z,27.59
2019-06-07T11:37:39.554Z,27.90
2019-06-07T11:40:27.793Z,27.47
2019-06-07T11:42:39.531Z,27.22
2019-06-07T11:45:10.510Z,27.62
2019-06-07T11:47:38.895Z,27.68
2019-06-07T11:50:09.294Z,27.81
2019-06-07T11:52:38.676Z,28.05
2019-06-07T11:55:09.827Z,28.17
2019-06-07T11:57:39.429Z,28.21
2019-06-07T12:00:11.827Z,28.19
2019-06-07T12:02:40.411Z,28.34
2019-06-07T12:05:12.646Z,28.74
2019-06-07T12:07:43.902Z,28.77
2019-06-07T12:10:14.773Z,29.00
2019-06-07T12:12:43.121Z,29.13
2019-06-07T12:15:12.934Z,28.69
2019-06-07T12:17:41.427Z,28.59
2019-06-07T12:20:12.286Z,28.53
2019-06-07T12:22:40.307Z,28.77
2019-06-07T12:25:10.432Z,29.25
2019-06-07T12:27:38.948Z,29.29
2019-06-07T12:30:11.210Z,29.40
2019-06-07T12:32:38.658Z,29.79
2019-06-07T12:35:11.494Z,29.61
2019-06-07T12:37:44.542Z,29.70
2019-06-07T12:40:15.659Z,29.64
2019-06-07T12:42:41.317Z,29.61
2019-06-07T12:45:10.354Z,29.99
2019-06-07T12:47:38.821Z,30.04
2019-06-07T12:50:08.227Z,30.24
2019-06-07T12:52:38.060Z,30.50
2019-06-07T12:55:08.002Z,30.47
2019-06-07T12:57:36.411Z,30.22
2019-06-07T13:00:10.292Z,30.36
2019-06-07T13:02:38.766Z,30.48
2019-06-07T13:05:08.156Z,30.79
2019-06-07T13:07:36.566Z,30.89
2019-06-07T13:10:09.841Z,31.01
2019-06-07T13:12:38.592Z,30.93
2019-06-07T13:15:08.708Z,31.08
2019-06-07T13:17:37.675Z,31.35
2019-06-07T13:20:07.212Z,31.00
2019-06-07T13:22:35.718Z,31.11
2019-06-07T13:25:05.693Z,31.16
2019-06-07T13:27:34.151Z,31.34
2019-06-07T13:30:09.773Z,31.18
2019-06-07T13:32:32.741Z,31.38
2019-06-07T13:35:01.236Z,31.14
2019-06-07T13:37:29.806Z,30.96
2019-06-07T13:39:58.593Z,31.12
2019-06-07T13:42:27.003Z,31.01
2019-06-07T13:44:55.397Z,30.72
2019-06-07T13:47:25.236Z,31.00
2019-06-07T13:49:55.236Z,31.20
2019-06-07T13:52:24.123Z,31.27
2019-06-07T13:54:52.537Z,31.36
2019-06-07T13:57:22.246Z,31.29
2019-06-07T13:59:50.995Z,31.38
2019-06-07T14:02:20.674Z,31.28
2019-06-07T14:04:49.348Z,31.51
2019-06-07T14:07:19.027Z,31.21
2019-06-07T14:09:47.691Z,31.40
2019-06-07T14:12:16.347Z,31.49
2019-06-07T14:14:44.817Z,31.75
2019-06-07T14:17:13.227Z,31.90
2019-06-07T14:19:41.650Z,32.23
2019-06-07T14:22:10.047Z,32.06
2019-06-07T14:24:38.473Z,31.77
2019-06-07T14:27:06.915Z,31.19
2019-06-07T14:29:38.552Z,31.04
2019-06-07T14:32:09.742Z,30.40
2019-06-07T14:34:38.311Z,30.05
2019-06-07T14:37:07.060Z,29.89
2019-06-07T14:39:35.571Z,29.99
2019-06-07T14:42:09.748Z,29.85
2019-06-07T14:44:34.385Z,29.96
2019-06-07T14:47:03.062Z,29.86
2019-06-07T14:49:32.718Z,29.81
2019-06-07T14:52:01.576Z,29.73
2019-06-07T14:54:33.501Z,29.62
2019-06-07T14:57:03.103Z,29.60
2019-06-07T14:59:30.671Z,29.58
2019-06-07T15:01:59.550Z,29.72
2019-06-07T15:04:28.548Z,29.83
2019-06-07T15:06:57.056Z,30.05
2019-06-07T15:09:26.745Z,30.10
2019-06-07T15:11:55.518Z,29.97
2019-06-07T15:14:24.068Z,29.69
2019-06-07T15:16:52.562Z,29.36
2019-06-07T15:19:23.993Z,29.15
2019-06-07T15:21:51.270Z,28.94
2019-06-07T15:24:19.677Z,28.72
2019-06-07T15:26:48.086Z,28.45
2019-06-07T15:29:16.509Z,28.21
2019-06-07T15:31:44.897Z,28.03
2019-06-07T15:34:13.322Z,27.90
2019-06-07T15:36:41.722Z,27.86
2019-06-07T15:39:10.200Z,27.75
2019-06-07T15:41:39.717Z,27.57
2019-06-07T15:44:08.427Z,27.45
2019-06-07T15:46:37.937Z,27.42
2019-06-07T15:49:06.557Z,27.38
2019-06-07T15:51:36.537Z,27.27
2019-06-07T15:54:05.542Z,27.10
2019-06-07T15:56:34.626Z,26.84
2019-06-07T15:59:03.182Z,26.77
2019-06-07T16:01:31.618Z,26.61
2019-06-07T16:04:00.022Z,26.45
2019-06-07T16:06:28.509Z,26.04
2019-06-07T16:08:56.926Z,25.51
2019-06-07T16:11:25.377Z,24.78
2019-06-07T16:13:53.784Z,24.22
2019-06-07T16:16:22.203Z,24.40
2019-06-07T16:18:50.603Z,24.59
2019-06-07T16:21:19.083Z,24.70
2019-06-07T16:23:47.643Z,24.77
2019-06-07T16:26:16.042Z,24.41
2019-06-07T16:28:44.736Z,24.20
2019-06-07T16:31:13.091Z,24.05
2019-06-07T16:33:41.613Z,24.12
2019-06-07T16:36:10.361Z,24.05
2019-06-07T16:38:38.786Z,23.96
2019-06-07T16:41:07.196Z,23.98
2019-06-07T16:43:36.554Z,23.98
2019-06-07T16:46:05.334Z,23.87
2019-06-07T16:48:33.888Z,23.89
2019-06-07T16:51:02.246Z,23.85
2019-06-07T16:53:30.737Z,23.36
2019-06-07T16:55:59.161Z,22.89
2019-06-07T16:58:27.571Z,22.79
2019-06-07T17:00:56.322Z,22.72
2019-06-07T17:03:25.248Z,22.69
2019-06-07T17:05:53.707Z,22.81
2019-06-07T17:08:22.158Z,22.83
2019-06-07T17:13:32.452Z,22.75
2019-06-07T17:15:49.007Z,22.78
2019-06-07T17:18:17.505Z,22.80
2019-06-07T17:20:47.288Z,22.68
2019-06-07T17:23:15.883Z,22.58
2019-06-07T17:25:45.435Z,22.32
2019-06-07T17:28:14.080Z,22.14
2019-06-07T17:30:43.922Z,21.88
2019-06-07T17:33:12.543Z,21.19
2019-06-07T17:35:42.206Z,21.15
2019-06-07T17:38:10.762Z,20.68
2019-06-07T17:40:40.653Z,20.18
2019-06-07T17:43:09.233Z,20.05
2019-06-07T17:45:37.759Z,19.86
2019-06-07T17:48:06.287Z,19.75
2019-06-07T17:50:34.741Z,19.84
2019-06-07T17:53:03.236Z,19.77
2019-06-07T17:55:31.718Z,19.64
2019-06-07T17:58:00.108Z,19.62
2019-06-07T18:00:33.499Z,19.59
2019-06-07T18:03:01.761Z,19.48
2019-06-07T18:05:30.157Z,19.37
2019-06-07T18:07:59.002Z,19.19
2019-06-07T18:10:38.503Z,19.07
2019-06-07T18:13:07.087Z,19.11
2019-06-07T18:15:52.843Z,18.93
2019-06-07T18:18:18.644Z,18.81
2019-06-07T18:20:47.397Z,18.80
2019-06-07T18:23:15.890Z,18.91
2019-06-07T18:25:44.382Z,18.81
2019-06-07T18:28:12.854Z,18.66
2019-06-07T18:30:41.390Z,18.48
2019-06-07T18:33:09.874Z,18.34
2019-06-07T18:35:38.332Z,18.13
2019-06-07T18:38:10.426Z,18.07
2019-06-07T18:40:36.932Z,18.00
2019-06-07T18:43:05.508Z,17.91
2019-06-07T18:45:33.931Z,17.92
2019-06-07T18:48:02.391Z,17.76
2019-06-07T18:50:30.772Z,17.58
2019-06-07T18:52:59.478Z,17.57
2019-06-07T18:55:27.882Z,17.56
2019-06-07T18:57:56.588Z,17.53
2019-06-07T19:00:25.713Z,17.50
2019-06-07T19:02:56.138Z,17.39
2019-06-07T19:05:25.638Z,17.34
2019-06-07T19:07:54.643Z,16.97
2019-06-07T19:10:23.493Z,17.02
2019-06-07T19:12:53.111Z,16.90
2019-06-07T19:15:22.913Z,16.78
2019-06-07T19:17:52.162Z,16.68
2019-06-07T19:20:21.267Z,16.68
2019-06-07T19:22:50.167Z,16.70
2019-06-07T19:25:18.913Z,16.73
2019-06-07T19:27:47.423Z,16.70
2019-06-07T19:30:16.254Z,16.65
2019-06-07T19:32:44.734Z,16.67
2019-06-07T19:35:13.857Z,16.67
2019-06-07T19:37:42.261Z,16.57
2019-06-07T19:40:11.357Z,16.51
2019-06-07T19:42:39.765Z,16.44
2019-06-07T19:45:29.058Z,16.36
2019-06-07T19:47:39.260Z,16.37
2019-06-07T19:50:08.223Z,16.44
2019-06-07T19:52:36.619Z,16.36
2019-06-07T19:55:09.822Z,16.31
2019-06-07T19:57:36.945Z,16.27
2019-06-07T20:03:34.703Z,16.16
2019-06-07T20:06:04.462Z,16.11
2019-06-07T20:08:33.025Z,16.07
2019-06-07T20:11:02.662Z,16.12
2019-06-07T20:13:31.182Z,16.05
2019-06-07T20:16:00.824Z,15.90
2019-06-07T20:18:29.456Z,15.95
2019-06-07T20:20:58.522Z,15.90
2019-06-07T20:23:27.105Z,15.88
2019-06-07T20:25:55.653Z,15.87
2019-06-07T20:28:24.158Z,15.83
2019-06-07T20:30:52.575Z,15.86
2019-06-07T20:33:20.992Z,15.89
2019-06-07T20:35:49.406Z,15.92
2019-06-07T20:38:17.819Z,15.91
2019-06-07T20:40:46.222Z,15.89
2019-06-07T20:43:14.619Z,15.80
2019-06-07T20:45:43.091Z,15.75
2019-06-07T20:48:11.567Z,15.69
2019-06-07T20:50:40.047Z,15.59
2019-06-07T20:53:09.177Z,15.50
2019-06-07T20:55:37.691Z,15.43
2019-06-07T20:58:07.315Z,15.34
2019-06-07T21:00:35.818Z,15.27
2019-06-07T21:03:05.295Z,15.18
2019-06-07T21:05:34.114Z,15.17
2019-06-07T21:08:04.154Z,15.12
2019-06-07T21:10:32.735Z,15.21
2019-06-07T21:13:01.976Z,15.21
2019-06-07T21:15:30.419Z,15.12
2019-06-07T21:18:00.173Z,14.99
2019-06-07T21:20:28.647Z,14.95
2019-06-07T21:22:57.125Z,14.90
2019-06-07T21:25:25.522Z,14.89
2019-06-07T21:27:53.937Z,14.95
2019-06-07T21:30:22.410Z,14.97
2019-06-07T21:32:50.825Z,14.93
2019-06-07T21:35:19.376Z,14.94
2019-06-07T21:37:47.786Z,14.90
2019-06-07T21:40:16.682Z,14.93
2019-06-07T21:42:45.157Z,15.00
2019-06-07T21:45:13.791Z,15.00
2019-06-07T21:47:42.232Z,14.94
2019-06-07T21:50:11.113Z,14.98
2019-06-07T21:52:40.019Z,14.89
2019-06-07T21:55:11.358Z,14.79
2019-06-07T21:57:39.887Z,14.67
2019-06-07T22:00:15.949Z,14.56
2019-06-07T22:02:44.364Z,14.52
2019-06-07T22:05:13.915Z,14.48
2019-06-07T22:07:42.478Z,14.37
2019-06-07T22:10:12.498Z,14.30
2019-06-07T22:12:41.083Z,14.19
2019-06-07T22:15:29.247Z,14.10
2019-06-07T22:17:40.498Z,14.04
2019-06-07T22:20:10.828Z,13.91
2019-06-07T22:22:39.301Z,13.90
2019-06-07T22:25:09.202Z,13.99
2019-06-07T22:27:37.737Z,13.95
2019-06-07T22:30:08.438Z,14.05
2019-06-07T22:32:37.161Z,13.92
2019-06-07T22:35:09.011Z,13.97
2019-06-07T22:37:37.509Z,13.94
2019-06-07T22:40:08.822Z,13.86
2019-06-07T22:42:37.332Z,13.81
2019-06-07T22:45:07.993Z,13.82
2019-06-07T22:47:36.809Z,13.92
2019-06-07T22:50:08.415Z,13.93
2019-06-07T22:52:36.949Z,13.92
2019-06-07T22:55:07.753Z,13.92
2019-06-07T22:57:55.678Z,14.03
2019-06-07T23:00:25.015Z,13.98
2019-06-07T23:02:53.479Z,13.91
2019-06-07T23:05:21.886Z,13.89
2019-06-07T23:07:50.359Z,13.84
2019-06-07T23:10:19.623Z,13.82
2019-06-07T23:12:48.166Z,13.87
2019-06-07T23:15:18.218Z,13.89
2019-06-07T23:17:47.765Z,13.91
2019-06-07T23:20:17.866Z,13.89
2019-06-07T23:22:46.483Z,13.81
2019-06-07T23:25:18.870Z,13.80
2019-06-07T23:27:45.438Z,13.80
2019-06-07T23:30:14.616Z,13.83
2019-06-07T23:32:43.071Z,13.83
2019-06-07T23:35:12.785Z,13.85
2019-06-07T23:37:41.175Z,13.95
2019-06-07T23:40:11.198Z,13.98
2019-06-07T23:42:39.768Z,13.99
2019-06-07T23:45:08.904Z,13.98
2019-06-07T23:47:37.353Z,13.99
2019-06-07T23:50:06.976Z,14.02
2019-06-07T23:52:35.578Z,13.99
2019-06-07T23:55:06.105Z,13.97
2019-06-07T23:57:34.581Z,13.95
